Time;durP1;ratioP1;P1;durP2;ratioP2;P2;SDS_P1;SDS_P2;PMS_P1;PMS_P2;Temp;Humidity;BMP_temperature;BMP_pressure;BME280_temperature;BME280_humidity;BME280_pressure;Samples;Min_cycle;Max_cycle;Signal;HPM_P1;HPM_P2
2022/04/19 00:01:28;;;;;;;7.17;4.17;;;;;;;9.06;26.39;100410.59;10373308;28;20197;-84
2022/04/19 00:06:31;;;;;;;4.53;3.90;;;;;;;9.01;26.36;100402.38;10373821;28;20193;-84
2022/04/19 00:11:33;;;;;;;6.50;4.10;;;;;;;8.89;26.32;100405.34;10373121;28;20213;-83
2022/04/19 00:16:36;;;;;;;6.50;3.80;;;;;;;8.94;26.41;100397.31;10371484;28;20233;-84
2022/04/19 00:21:38;;;;;;;6.73;4.00;;;;;;;8.86;26.85;100396.34;10372279;28;20201;-84
2022/04/19 00:26:41;;;;;;;7.37;4.53;;;;;;;8.72;26.81;100396.00;10387204;28;20209;-83
2022/04/19 00:31:43;;;;;;;5.77;3.80;;;;;;;8.74;27.10;100390.78;10379631;28;20479;-84
2022/04/19 00:36:46;;;;;;;5.07;4.27;;;;;;;8.76;26.66;100384.72;10395253;28;20228;-84
2022/04/19 00:41:48;;;;;;;6.37;4.10;;;;;;;8.71;27.00;100387.84;10412152;28;20188;-82
2022/04/19 00:46:50;;;;;;;6.00;3.67;;;;;;;8.37;27.55;100395.91;10386376;28;20498;-84
2022/04/19 00:51:56;;;;;;;6.07;3.60;;;;;;;8.65;27.08;100377.94;10409966;28;20311;-83
2022/04/19 00:57:00;;;;;;;6.47;3.80;;;;;;;7.36;28.74;100385.00;10383898;28;20224;-83
2022/04/19 01:02:03;;;;;;;5.90;4.37;;;;;;;7.23;29.56;100376.91;10391251;28;20658;-83
2022/04/19 01:07:07;;;;;;;6.07;3.90;;;;;;;7.78;28.57;100368.41;10411250;28;20262;-85
2022/04/19 01:17:34;;;;;;;4.63;4.23;;;;;;;8.11;28.01;100367.22;10407556;28;20588;-84
2022/04/19 01:22:38;;;;;;;6.90;4.10;;;;;;;8.11;27.92;100367.22;10392058;28;20200;-83
2022/04/19 01:27:41;;;;;;;4.53;4.03;;;;;;;7.52;28.77;100361.53;10392504;28;20212;-83
2022/04/19 01:32:44;;;;;;;6.80;4.47;;;;;;;7.78;27.88;100357.06;10399019;28;20274;-83
2022/04/19 01:37:48;;;;;;;6.00;5.00;;;;;;;7.93;27.95;100357.44;10391762;28;20233;-85
2022/04/19 01:43:02;;;;;;;6.00;4.83;;;;;;;7.63;28.30;100352.16;10374968;28;20239;-87
2022/04/19 01:48:35;;;;;;;9.27;5.50;;;;;;;7.77;28.10;100344.06;10415926;28;20286;-83
2022/04/19 01:53:40;;;;;;;7.60;5.40;;;;;;;7.46;28.70;100347.63;10374595;28;20264;-83
2022/04/19 01:58:44;;;;;;;9.00;5.60;;;;;;;7.24;29.33;100348.19;10352992;28;20205;-83
2022/04/19 02:03:48;;;;;;;8.57;5.37;;;;;;;7.25;29.05;100349.84;10389764;28;20606;-84
2022/04/19 02:08:56;;;;;;;11.97;6.40;;;;;;;7.31;28.70;100339.91;10360292;28;20254;-84
2022/04/19 02:13:59;;;;;;;7.87;6.00;;;;;;;7.28;28.71;100345.47;10359348;28;20221;-83
2022/04/19 02:19:08;;;;;;;9.30;6.43;;;;;;;6.53;29.83;100350.81;10359996;28;20283;-83
2022/04/19 02:24:10;;;;;;;7.83;6.17;;;;;;;6.15;30.60;100362.47;10374824;28;20243;-83
2022/04/19 02:29:15;;;;;;;10.33;5.73;;;;;;;6.08;30.87;100351.72;10395719;28;20265;-83
2022/04/19 02:34:21;;;;;;;12.70;5.67;;;;;;;6.39;30.51;100352.00;10400741;28;20362;-82
2022/04/19 02:39:24;;;;;;;10.83;5.83;;;;;;;7.03;29.71;100347.56;10415993;28;20200;-83
2022/04/19 02:44:27;;;;;;;10.07;6.07;;;;;;;6.78;30.04;100352.44;10421666;28;20197;-82
2022/04/19 02:49:40;;;;;;;7.80;6.20;;;;;;;6.86;29.90;100345.81;10406515;28;20209;-84
2022/04/19 02:54:43;;;;;;;7.07;5.73;;;;;;;6.33;30.21;100353.41;10407067;28;20775;-83
2022/04/19 02:59:46;;;;;;;8.17;5.40;;;;;;;6.77;29.63;100356.44;10423053;28;20208;-82
2022/04/19 03:04:49;;;;;;;9.20;5.60;;;;;;;6.54;30.19;100358.16;10400117;28;20490;-82
2022/04/19 03:09:51;;;;;;;7.73;6.00;;;;;;;6.77;29.82;100356.44;10416519;28;20258;-82
2022/04/19 03:14:53;;;;;;;10.80;5.97;;;;;;;6.54;30.06;100355.31;10415482;28;20255;-82
2022/04/19 03:19:56;;;;;;;7.47;5.97;;;;;;;5.90;31.01;100350.31;10399483;28;20378;-86
2022/04/19 03:30:23;;;;;;;6.47;5.57;;;;;;;5.99;30.65;100360.34;10413900;28;20263;-84
2022/04/19 03:35:27;;;;;;;7.40;5.43;;;;;;;6.26;30.35;100353.19;10414537;28;20569;-83
2022/04/19 03:40:30;;;;;;;8.13;5.93;;;;;;;6.22;30.13;100357.06;10398738;28;20216;-83
2022/04/19 03:45:33;;;;;;;8.70;6.10;;;;;;;6.28;30.33;100356.50;10398714;28;20262;-83
2022/04/19 03:50:36;;;;;;;9.77;5.57;;;;;;;7.05;28.93;100343.19;10398021;28;20545;-84
2022/04/19 03:55:38;;;;;;;9.70;6.00;;;;;;;6.74;29.29;100341.00;10396974;28;20251;-86
2022/04/19 04:00:41;;;;;;;7.20;5.60;;;;;;;6.43;30.11;100345.63;10398394;28;20266;-84
2022/04/19 04:05:44;;;;;;;7.93;5.70;;;;;;;6.09;30.92;100347.72;10381645;28;20208;-84
2022/04/19 04:10:47;;;;;;;7.23;5.97;;;;;;;6.62;29.83;100345.84;10381596;28;20423;-86
2022/04/19 04:15:50;;;;;;;7.47;6.13;;;;;;;6.31;30.29;100350.09;10396594;28;20255;-86
2022/04/19 04:20:53;;;;;;;8.87;5.63;;;;;;;5.95;31.16;100350.88;10383463;28;20212;-86
2022/04/19 04:25:55;;;;;;;7.67;6.17;;;;;;;6.24;30.18;100349.06;10379644;28;20671;-85
2022/04/19 04:30:58;;;;;;;11.03;7.47;;;;;;;6.01;30.59;100362.81;10403957;28;20624;-86
2022/04/19 04:36:01;;;;;;;10.33;6.53;;;;;;;6.18;30.07;100362.56;10406741;28;20232;-85
2022/04/19 04:41:05;;;;;;;8.70;6.50;;;;;;;6.50;29.77;100362.84;10426645;28;20265;-85
2022/04/19 04:51:34;;;;;;;8.83;6.37;;;;;;;5.50;31.30;100359.41;10426722;28;20204;-87
2022/04/19 04:56:36;;;;;;;9.97;6.13;;;;;;;6.14;30.54;100378.63;10418842;28;20240;-86
2022/04/19 05:01:39;;;;;;;13.00;6.60;;;;;;;5.93;31.06;100375.88;10402649;28;20263;-87
2022/04/19 05:06:41;;;;;;;9.03;7.17;;;;;;;6.11;30.57;100378.50;10418019;28;20270;-87
2022/04/19 05:11:47;;;;;;;11.23;6.90;;;;;;;6.21;30.50;100380.91;10386695;28;20212;-85
2022/04/19 05:16:49;;;;;;;10.07;6.47;;;;;;;6.01;30.89;100374.97;10412537;28;20282;-86
2022/04/19 05:21:52;;;;;;;11.03;6.90;;;;;;;5.91;31.34;100371.72;10422171;28;20200;-85
2022/04/19 05:26:54;;;;;;;11.00;7.57;;;;;;;6.13;31.06;100374.16;10422854;28;20212;-85
2022/04/19 05:31:57;;;;;;;10.47;6.90;;;;;;;6.29;30.65;100379.97;10418585;28;20262;-88
2022/04/19 05:36:59;;;;;;;8.70;6.87;;;;;;;6.46;30.28;100376.88;10418077;28;20324;-86
2022/04/19 05:42:02;;;;;;;12.00;6.73;;;;;;;6.68;30.29;100381.25;10438932;28;20274;-86
2022/04/19 05:47:04;;;;;;;16.27;7.53;;;;;;;6.80;30.04;100375.56;10416811;28;20223;-86
2022/04/19 05:52:07;;;;;;;11.00;7.60;;;;;;;6.81;29.93;100380.03;10406927;28;20266;-86
2022/04/19 05:57:17;;;;;;;10.77;8.10;;;;;;;6.73;30.46;100384.66;10439916;28;20228;-86
2022/04/19 06:07:45;;;;;;;8.17;6.73;;;;;;;7.02;28.68;100383.59;10456673;28;20231;-85
2022/04/19 06:12:47;;;;;;;9.60;7.17;;;;;;;7.75;26.61;100380.44;10445457;28;20216;-86
2022/04/19 06:17:51;;;;;;;9.10;6.50;;;;;;;7.09;28.26;100389.44;10424648;28;20232;-86
2022/04/19 06:23:17;;;;;;;8.63;6.50;;;;;;;7.80;26.18;100377.38;10443583;28;20547;-86
2022/04/19 06:28:22;;;;;;;8.80;7.00;;;;;;;6.73;28.55;100390.31;10422240;28;20231;-86
2022/04/19 06:33:43;;;;;;;10.67;6.70;;;;;;;7.54;26.96;100379.03;10453443;28;20293;-86
2022/04/19 06:38:47;;;;;;;8.90;6.67;;;;;;;7.02;27.29;100389.25;10431930;28;20207;-86
2022/04/19 06:43:49;;;;;;;9.40;7.20;;;;;;;7.24;27.07;100376.53;10434188;28;20262;-86
2022/04/19 06:48:56;;;;;;;10.53;6.67;;;;;;;7.40;26.43;100368.09;10441656;28;20457;-86
2022/04/19 06:53:58;;;;;;;11.80;6.77;;;;;;;7.44;27.34;100369.88;10422885;28;20216;-86
2022/04/19 06:59:13;;;;;;;9.50;6.20;;;;;;;7.66;26.39;100368.44;10445462;28;20204;-86
2022/04/19 07:04:16;;;;;;;9.20;6.90;;;;;;;6.49;28.47;100386.69;10433404;28;20261;-86
2022/04/19 07:09:25;;;;;;;8.67;6.40;;;;;;;7.53;26.35;100378.19;10427655;28;20208;-86
2022/04/19 07:14:28;;;;;;;7.23;6.00;;;;;;;8.18;25.29;100370.28;10442843;28;20229;-86
2022/04/19 07:26:37;;;;;;;9.03;6.20;;;;;;;7.84;26.17;100382.34;10446480;28;20216;-86
2022/04/19 07:30:22;;;;;;;6.90;5.43;;;;;;;7.74;25.62;100384.47;10446474;28;20520;-86
2022/04/19 07:35:25;;;;;;;9.63;5.80;;;;;;;7.70;26.05;100391.25;10426684;28;20239;-85
2022/04/19 07:40:29;;;;;;;10.23;6.43;;;;;;;8.30;24.45;100384.38;10413938;28;20654;-86
2022/04/19 07:45:31;;;;;;;8.90;6.10;;;;;;;7.61;25.18;100391.38;10435358;28;20593;-87
2022/04/19 07:50:34;;;;;;;8.10;6.40;;;;;;;8.61;24.18;100388.44;10442044;28;20216;-86
2022/04/19 07:55:36;;;;;;;9.20;5.67;;;;;;;9.49;23.50;100384.78;10477719;28;20281;-86
2022/04/19 08:00:38;;;;;;;7.03;5.17;;;;;;;9.75;23.61;100386.91;10455931;28;20258;-87
2022/04/19 08:05:41;;;;;;;6.77;4.90;;;;;;;10.45;22.31;100385.75;10447803;28;20199;-86
2022/04/19 08:10:44;;;;;;;10.90;5.93;;;;;;;10.35;22.07;100387.22;10455570;28;20265;-86
2022/04/19 08:15:47;;;;;;;7.53;4.73;;;;;;;9.66;22.19;100376.97;10435170;28;20663;-86
2022/04/19 08:20:51;;;;;;;5.90;4.37;;;;;;;9.57;22.72;100385.72;10420182;28;20270;-86
2022/04/19 08:25:54;;;;;;;5.20;4.37;;;;;;;9.20;24.01;100380.47;10404499;28;20593;-87
2022/04/19 08:30:57;;;;;;;6.67;4.90;;;;;;;10.57;21.78;100383.56;10420154;28;20200;-86
2022/04/19 08:36:04;;;;;;;7.50;5.07;;;;;;;11.16;22.37;100379.16;10404412;28;20695;-86
2022/04/19 08:41:06;;;;;;;6.43;5.07;;;;;;;11.05;21.73;100374.50;10386667;28;20262;-87
2022/04/19 08:46:11;;;;;;;6.40;5.00;;;;;;;11.33;21.28;100375.75;10403380;28;20676;-86
2022/04/19 08:51:14;;;;;;;7.37;4.90;;;;;;;11.40;22.37;100374.19;10402640;28;20494;-87
2022/04/19 09:01:39;;;;;;;6.07;4.17;;;;;;;9.84;22.77;100378.94;10418835;28;20200;-87
2022/04/19 09:06:51;;;;;;;4.57;4.00;;;;;;;11.18;21.88;100376.75;10403162;28;20574;-86
2022/04/19 09:12:04;;;;;;;5.63;4.30;;;;;;;11.23;21.99;100379.25;10418630;28;20247;-87
2022/04/19 09:17:08;;;;;;;8.37;4.37;;;;;;;12.47;20.90;100365.56;10402052;28;20240;-86
2022/04/19 09:22:10;;;;;;;6.30;3.97;;;;;;;12.90;21.16;100365.91;10401690;28;20192;-86
2022/04/19 09:27:12;;;;;;;5.67;3.30;;;;;;;12.18;21.38;100367.34;10385343;28;20269;-86
2022/04/19 09:32:15;;;;;;;3.97;3.33;;;;;;;11.89;21.17;100368.22;10401077;28;20216;-86
2022/04/19 09:37:17;;;;;;;5.47;3.50;;;;;;;10.46;22.61;100376.00;10419781;28;20228;-87
2022/04/19 09:42:20;;;;;;;5.13;3.40;;;;;;;9.93;22.80;100359.63;10422295;28;20208;-87
2022/04/19 09:47:22;;;;;;;6.17;3.60;;;;;;;12.27;21.13;100359.25;10418962;28;20192;-87
2022/04/19 09:52:25;;;;;;;3.83;2.83;;;;;;;11.26;22.65;100352.78;10417479;28;20193;-87
2022/04/19 09:57:31;;;;;;;5.33;3.90;;;;;;;12.23;21.80;100347.00;10418194;28;20216;-87
2022/04/19 10:08:11;;;;;;;6.95;4.22;;;;;;;12.23;21.46;100343.31;10417000;28;20651;-87
2022/04/19 10:13:17;;;;;;;6.90;4.07;;;;;;;12.82;20.58;100338.47;10416973;28;20528;-88
2022/04/19 10:18:19;;;;;;;5.60;4.03;;;;;;;14.01;19.51;100328.75;10416621;28;20216;-88
2022/04/19 10:23:32;;;;;;;6.33;4.30;;;;;;;13.07;20.87;100319.41;10383728;28;20200;-87
2022/04/19 10:28:35;;;;;;;6.93;3.40;;;;;;;13.41;20.23;100315.09;10383709;28;20255;-87
2022/04/19 10:33:38;;;;;;;5.80;3.10;;;;;;;14.14;19.21;100309.94;10383619;28;20232;-87
2022/04/19 10:38:41;;;;;;;6.82;3.83;;;;;;;12.83;20.85;100314.38;10416036;28;20236;-87
2022/04/19 10:44:23;;;;;;;5.03;3.43;;;;;;;13.41;20.75;100297.09;10416051;28;20192;-88
2022/04/19 10:49:25;;;;;;;6.43;3.30;;;;;;;13.59;20.16;100297.13;10416143;28;20596;-87
2022/04/19 10:55:06;;;;;;;8.63;3.43;;;;;;;14.22;18.85;100292.72;10383827;28;20208;-87
2022/04/19 11:00:22;;;;;;;5.47;3.73;;;;;;;12.68;20.93;100302.84;10399423;28;20270;-87
2022/04/19 11:05:53;;;;;;;5.57;3.63;;;;;;;13.30;20.44;100294.16;10423604;28;20260;-86
2022/04/19 11:10:55;;;;;;;6.43;3.50;;;;;;;13.55;20.51;100288.56;10427285;28;20516;-84
2022/04/19 11:16:00;;;;;;;8.70;4.20;;;;;;;13.82;20.28;100285.34;10425769;28;20632;-86
2022/04/19 11:21:05;;;;;;;4.20;2.90;;;;;;;14.57;19.31;100289.06;10424965;28;20205;-87
2022/04/19 11:26:30;;;;;;;8.80;3.60;;;;;;;13.92;20.92;100285.38;10406242;28;20455;-87
2022/04/19 11:31:32;;;;;;;4.87;3.63;;;;;;;13.74;19.78;100291.03;10422682;28;20205;-86
2022/04/19 11:36:36;;;;;;;5.30;4.20;;;;;;;15.04;18.39;100264.75;10421949;28;20224;-87
2022/04/19 11:46:59;;;;;;;4.90;3.80;;;;;;;14.00;20.35;100261.19;10421960;28;20188;-87
2022/04/19 11:52:08;;;;;;;6.30;4.20;;;;;;;12.61;21.07;100277.06;10421510;28;20243;-88
2022/04/19 11:57:12;;;;;;;6.03;4.05;;;;;;;12.20;24.06;100278.38;10421315;28;20216;-88
2022/04/19 12:02:17;;;;;;;7.22;4.50;;;;;;;14.68;19.71;100264.84;10388338;28;20245;-87
2022/04/19 12:07:21;;;;;;;7.43;4.67;;;;;;;16.31;18.77;100250.78;10404490;28;20197;-87
2022/04/19 12:12:23;;;;;;;4.85;4.30;;;;;;;15.69;18.96;100266.06;10419869;28;20581;-88
2022/04/19 12:17:47;;;;;;;8.03;4.70;;;;;;;15.52;19.03;100268.59;10392193;28;20278;-87
2022/04/19 12:22:50;;;;;;;4.77;3.80;;;;;;;14.98;19.33;100261.50;10404422;28;20266;-88
2022/04/19 12:27:54;;;;;;;5.60;4.03;;;;;;;15.48;19.19;100261.25;10432930;28;20731;-87
2022/04/19 12:32:59;;;;;;;7.97;3.50;;;;;;;14.68;20.14;100264.03;10417096;28;20286;-88
2022/04/19 12:38:08;;;;;;;6.07;2.80;;;;;;;14.48;19.50;100250.13;10431833;28;20243;-87
2022/04/19 12:43:14;;;;;;;4.33;3.10;;;;;;;14.66;20.48;100250.09;10445017;28;20245;-87
2022/04/19 12:48:22;;;;;;;3.78;3.38;;;;;;;14.92;20.39;100248.78;10423280;28;20200;-87
2022/04/19 12:53:24;;;;;;;6.00;2.63;;;;;;;15.98;18.91;100227.25;10425059;28;20276;-87
2022/04/19 12:58:27;;;;;;;3.50;3.20;;;;;;;15.70;18.50;100238.97;10435404;28;20298;-87
2022/04/19 13:03:29;;;;;;;8.63;4.95;;;;;;;14.93;19.47;100246.72;10466798;28;20200;-87
2022/04/19 13:13:52;;;;;;;5.30;2.87;;;;;;;15.28;18.49;100240.03;10438888;28;20203;-87
2022/04/19 13:18:55;;;;;;;3.33;2.53;;;;;;;13.84;19.61;100232.13;10415932;28;20290;-87
2022/04/19 13:23:57;;;;;;;4.20;2.25;;;;;;;14.30;19.05;100231.31;10441198;28;20242;-88
2022/04/19 13:28:59;;;;;;;7.77;2.67;;;;;;;14.04;18.98;100230.50;10407858;28;20234;-87
2022/04/19 13:34:02;;;;;;;4.40;2.83;;;;;;;15.28;18.31;100217.88;10437256;28;20231;-88
2022/04/19 13:39:05;;;;;;;6.17;2.93;;;;;;;16.15;18.06;100205.38;10445572;28;20227;-88
2022/04/19 13:44:11;;;;;;;4.82;3.30;;;;;;;15.55;18.89;100204.59;10447070;28;20281;-88
2022/04/19 13:49:14;;;;;;;5.83;2.90;;;;;;;14.95;19.04;100204.09;10426822;28;20276;-88
2022/04/19 13:54:18;;;;;;;4.22;2.90;;;;;;;14.94;19.90;100211.06;10431897;28;20203;-88
2022/04/19 13:59:20;;;;;;;4.47;2.20;;;;;;;14.67;18.88;100217.31;10445821;28;20238;-88
2022/04/19 14:04:22;;;;;;;4.82;2.83;;;;;;;15.41;18.61;100204.66;10439322;28;20213;-87
2022/04/19 14:09:26;;;;;;;4.68;1.80;;;;;;;15.29;18.32;100213.75;10430265;28;20200;-87
2022/04/19 14:14:28;;;;;;;6.67;1.93;;;;;;;14.47;19.19;100204.69;10412934;28;20600;-89
2022/04/19 14:19:31;;;;;;;3.67;1.40;;;;;;;15.57;17.74;100206.22;10425248;28;20283;-87
2022/04/19 14:24:33;;;;;;;4.40;1.30;;;;;;;14.88;18.33;100219.25;10423959;28;20213;-88
2022/04/19 14:34:56;;;;;;;2.78;1.50;;;;;;;15.43;17.47;100210.00;10446506;28;20285;-87
2022/04/19 14:40:00;;;;;;;1.25;0.50;;;;;;;14.64;17.00;100215.25;10446920;28;20314;-86
2022/04/19 14:45:02;;;;;;;1.50;0.28;;;;;;;14.37;17.03;100203.41;10452671;28;20216;-87
2022/04/19 14:50:05;;;;;;;1.13;0.40;;;;;;;14.79;17.19;100213.97;10437084;28;20200;-88
2022/04/19 14:55:07;;;;;;;0.73;0.30;;;;;;;14.75;15.81;100230.38;10426682;28;20261;-88
2022/04/19 15:00:10;;;;;;;1.15;0.68;;;;;;;14.31;15.66;100221.47;10413169;28;20254;-87
2022/04/19 15:05:12;;;;;;;3.60;0.60;;;;;;;14.31;16.97;100228.03;10446574;28;20288;-87
2022/04/19 15:10:16;;;;;;;1.33;0.50;;;;;;;14.99;15.97;100207.78;10447016;28;20204;-88
2022/04/19 15:15:37;;;;;;;3.40;0.55;;;;;;;14.84;16.84;100213.56;10420121;28;20226;-88
2022/04/19 15:20:40;;;;;;;0.68;0.55;;;;;;;14.19;16.27;100219.03;10408338;28;20241;-87
2022/04/19 15:25:42;;;;;;;5.17;1.00;;;;;;;13.83;17.33;100218.22;10434909;28;20508;-88
2022/04/19 15:30:44;;;;;;;3.85;1.10;;;;;;;12.60;17.71;100218.25;10412720;28;20204;-87
2022/04/19 15:35:47;;;;;;;2.78;0.70;;;;;;;13.43;17.65;100211.63;10442178;28;20635;-87
2022/04/19 15:40:49;;;;;;;12.25;1.00;;;;;;;10.92;18.57;100228.50;10403925;28;20404;-76
2022/04/19 15:45:52;;;;;;;1.57;0.77;;;;;;;13.07;17.38;100222.94;10453368;28;20211;-88
2022/04/19 15:50:54;;;;;;;1.83;0.70;;;;;;;12.86;17.33;100222.03;10427704;28;20204;-87
2022/04/19 15:55:57;;;;;;;1.23;0.60;;;;;;;14.07;15.46;100215.38;10415749;28;20251;-87
2022/04/19 16:01:00;;;;;;;2.77;0.63;;;;;;;14.19;15.17;100224.78;10422073;28;20209;-87
2022/04/19 16:06:03;;;;;;;2.58;0.63;;;;;;;13.42;15.82;100215.72;10440359;28;20290;-88
2022/04/19 16:11:06;;;;;;;2.75;1.20;;;;;;;13.73;16.00;100209.19;10439576;28;20211;-86
2022/04/19 16:26:51;;;;;;;3.83;0.87;;;;;;;13.96;15.73;100211.66;10453504;28;20204;-87
2022/04/19 16:31:53;;;;;;;0.90;0.50;;;;;;;13.79;16.12;100213.31;10445568;28;20283;-87
2022/04/19 16:36:56;;;;;;;1.88;0.70;;;;;;;14.15;16.26;100213.31;10462846;28;20293;-87
2022/04/19 16:41:59;;;;;;;2.42;0.82;;;;;;;13.25;17.28;100222.22;10453922;28;20501;-88
2022/04/19 16:47:01;;;;;;;1.90;1.07;;;;;;;12.74;17.05;100224.03;10453487;28;20219;-87
2022/04/19 16:52:04;;;;;;;0.80;0.80;;;;;;;12.62;17.26;100227.25;10440233;28;20593;-87
2022/04/19 16:57:06;;;;;;;2.17;0.67;;;;;;;12.82;17.50;100226.91;10439705;28;20845;-89
2022/04/19 17:02:09;;;;;;;3.93;0.40;;;;;;;13.64;16.66;100225.97;10455058;28;20858;-90
2022/04/19 17:07:11;;;;;;;0.67;0.57;;;;;;;14.49;15.87;100228.81;10443119;28;20799;-87
2022/04/19 17:12:13;;;;;;;1.30;0.80;;;;;;;13.55;16.38;100230.47;10431383;28;20317;-89
2022/04/19 17:17:20;;;;;;;1.43;1.00;;;;;;;13.40;16.67;100241.06;10461190;28;20674;-88
2022/04/19 17:22:22;;;;;;;2.97;1.23;;;;;;;13.01;16.92;100241.72;10437742;28;20257;-89
2022/04/19 17:27:25;;;;;;;2.67;1.20;;;;;;;13.39;16.97;100254.56;10450289;28;20207;-88
2022/04/19 17:32:29;;;;;;;2.13;1.07;;;;;;;12.19;17.97;100251.00;10442133;28;20468;-88
2022/04/19 17:37:31;;;;;;;2.30;1.10;;;;;;;11.91;18.67;100269.53;10469106;28;20211;-89
2022/04/19 17:42:34;;;;;;;3.43;1.60;;;;;;;12.14;18.35;100265.66;10433771;28;20204;-88
2022/04/19 17:47:36;;;;;;;3.97;1.57;;;;;;;11.32;19.57;100271.41;10413707;28;20192;-91
2022/04/19 17:58:01;;;;;;;2.80;1.70;;;;;;;11.64;18.61;100293.72;10442644;28;20277;-89
2022/04/19 18:03:04;;;;;;;1.87;1.33;;;;;;;11.82;18.87;100283.31;10437490;28;20238;-88
2022/04/19 18:08:07;;;;;;;1.63;1.30;;;;;;;10.85;20.27;100302.53;10418795;28;20208;-88
2022/04/19 18:13:09;;;;;;;1.90;1.50;;;;;;;11.03;19.58;100303.59;10424362;28;20212;-89
2022/04/19 18:18:11;;;;;;;5.38;1.45;;;;;;;11.69;18.48;100307.66;10425664;28;20521;-90
2022/04/19 18:28:40;;;;;;;4.07;1.40;;;;;;;11.55;20.30;100310.38;10456783;28;20507;-88
2022/04/19 18:33:44;;;;;;;3.53;1.57;;;;;;;11.63;19.45;100314.94;10402822;28;20243;-87
2022/04/19 18:38:46;;;;;;;2.83;2.00;;;;;;;12.03;18.79;100325.56;10420688;28;20286;-87
2022/04/19 18:43:48;;;;;;;3.90;1.77;;;;;;;11.67;20.17;100338.63;10419849;28;20611;-87
2022/04/19 18:48:51;;;;;;;3.47;1.90;;;;;;;11.66;19.67;100348.41;10442122;28;20231;-87
2022/04/19 18:53:53;;;;;;;7.17;2.77;;;;;;;10.84;21.36;100357.91;10409185;28;20613;-87
2022/04/19 18:58:56;;;;;;;4.90;2.53;;;;;;;9.77;21.90;100364.59;10448618;28;20570;-88
2022/04/19 19:03:58;;;;;;;3.17;2.03;;;;;;;11.13;20.79;100365.66;10448574;28;20204;-89
2022/04/19 19:09:00;;;;;;;4.13;2.43;;;;;;;11.57;20.40;100374.44;10432524;28;20234;-88
2022/04/19 19:14:03;;;;;;;2.83;1.70;;;;;;;11.03;21.68;100385.47;10444662;28;20257;-86
2022/04/19 19:19:06;;;;;;;3.17;1.43;;;;;;;10.62;21.73;100390.97;10418630;28;20289;-89
2022/04/19 19:24:10;;;;;;;2.27;1.70;;;;;;;10.35;21.34;100390.06;10436990;28;20212;-86
2022/04/19 19:29:12;;;;;;;2.77;2.00;;;;;;;10.22;21.74;100394.31;10451762;28;20500;-86
2022/04/19 19:34:18;;;;;;;4.47;2.07;;;;;;;9.92;22.11;100403.53;10458941;28;20640;-85
2022/04/19 19:39:20;;;;;;;3.40;1.87;;;;;;;10.82;21.47;100417.38;10428319;28;20298;-85
2022/04/19 19:44:23;;;;;;;2.40;1.20;;;;;;;10.68;21.64;100417.97;10423045;28;20208;-86
2022/04/19 19:49:26;;;;;;;2.40;1.50;;;;;;;10.62;21.15;100417.44;10437838;28;20208;-85
2022/04/19 19:54:28;;;;;;;2.67;1.53;;;;;;;9.24;22.92;100428.09;10423339;28;20286;-86
2022/04/19 19:59:30;;;;;;;1.97;1.23;;;;;;;10.06;21.72;100419.25;10446100;28;20250;-87
2022/04/19 20:04:32;;;;;;;3.37;1.47;;;;;;;10.25;21.83;100422.06;10437566;28;20200;-84
2022/04/19 20:09:35;;;;;;;1.90;1.53;;;;;;;9.95;21.68;100426.75;10413967;28;20205;-84
2022/04/19 20:14:37;;;;;;;4.20;2.03;;;;;;;10.53;21.53;100422.56;10427723;28;20229;-85
2022/04/19 20:19:39;;;;;;;2.63;1.77;;;;;;;10.02;21.62;100424.06;10437631;28;20224;-85
2022/04/19 20:24:42;;;;;;;2.43;1.43;;;;;;;10.29;21.46;100428.66;10446881;28;20234;-84
2022/04/19 20:29:44;;;;;;;1.97;1.37;;;;;;;10.23;21.44;100433.00;10417907;28;20201;-85
2022/04/19 20:34:47;;;;;;;3.07;1.83;;;;;;;9.76;21.60;100438.97;10435302;28;20246;-84
2022/04/19 20:39:50;;;;;;;1.87;1.63;;;;;;;9.70;21.04;100441.28;10445859;28;20274;-87
2022/04/19 20:44:52;;;;;;;2.53;1.40;;;;;;;9.31;21.70;100445.31;10419762;28;20500;-86
2022/04/19 20:50:07;;;;;;;3.87;1.20;;;;;;;8.94;21.39;100447.66;10441701;28;20253;-85
2022/04/19 20:55:17;;;;;;;2.67;1.30;;;;;;;9.67;20.93;100453.41;10435386;28;20292;-86
2022/04/19 21:00:26;;;;;;;1.53;1.00;;;;;;;9.21;21.14;100455.22;10419169;28;20248;-88
2022/04/19 21:05:29;;;;;;;2.93;1.30;;;;;;;9.28;20.93;100466.78;10421469;28;20224;-84
2022/04/19 21:10:31;;;;;;;1.00;0.90;;;;;;;9.33;21.07;100468.53;10417826;28;20213;-87
2022/04/19 21:15:33;;;;;;;3.00;1.40;;;;;;;9.40;21.34;100471.53;10440481;28;20299;-88
2022/04/19 21:20:37;;;;;;;3.10;1.57;;;;;;;9.34;21.39;100470.16;10421496;28;20264;-86
2022/04/19 21:25:40;;;;;;;3.03;1.00;;;;;;;9.96;20.00;100471.94;10411978;28;20289;-87
2022/04/19 21:31:03;;;;;;;3.13;1.40;;;;;;;9.44;20.61;100466.72;10416962;28;20232;-85
2022/04/19 21:36:06;;;;;;;2.87;1.53;;;;;;;9.62;20.51;100473.66;10429947;28;20656;-85
2022/04/19 21:41:11;;;;;;;1.80;1.10;;;;;;;8.96;21.71;100477.38;10427795;28;20248;-88
2022/04/19 21:46:13;;;;;;;3.33;1.17;;;;;;;9.21;21.14;100481.66;10429673;28;20231;-85
2022/04/19 21:51:16;;;;;;;4.40;1.13;;;;;;;8.84;21.65;100472.63;10427201;28;20274;-85
2022/04/19 21:56:18;;;;;;;1.80;1.20;;;;;;;9.63;20.06;100481.00;10428491;28;20207;-86
2022/04/19 22:01:20;;;;;;;0.77;0.70;;;;;;;9.02;21.69;100478.72;10411384;28;20267;-86
2022/04/19 22:06:23;;;;;;;2.73;1.30;;;;;;;9.33;20.78;100482.75;10427277;28;20203;-87
2022/04/19 22:11:26;;;;;;;2.30;1.10;;;;;;;9.19;20.91;100498.25;10413055;28;20232;-86
2022/04/19 22:16:34;;;;;;;1.97;1.10;;;;;;;9.13;21.60;100491.22;10410400;28;21031;-86
2022/04/19 22:21:37;;;;;;;2.17;1.00;;;;;;;9.36;20.72;100490.53;10416883;28;20305;-87
2022/04/19 22:26:39;;;;;;;1.97;1.20;;;;;;;8.76;21.69;100482.16;10434488;28;20231;-85
2022/04/19 22:31:42;;;;;;;2.03;0.90;;;;;;;8.75;21.67;100488.22;10412920;28;20270;-86
2022/04/19 22:36:44;;;;;;;3.93;1.00;;;;;;;8.90;21.53;100492.22;10434671;28;20223;-86
2022/04/19 22:41:46;;;;;;;1.40;0.93;;;;;;;8.59;22.08;100493.09;10425551;28;20342;-85
2022/04/19 22:46:48;;;;;;;4.33;1.00;;;;;;;7.97;21.82;100503.13;10427822;28;20609;-85
2022/04/19 22:51:51;;;;;;;1.73;1.30;;;;;;;8.59;21.33;100498.78;10427771;28;20254;-86
2022/04/19 22:56:53;;;;;;;2.30;1.10;;;;;;;8.52;21.22;100500.22;10429724;28;20310;-89
2022/04/19 23:01:55;;;;;;;1.93;1.33;;;;;;;8.23;22.82;100489.28;10418768;28;20297;-86
2022/04/19 23:07:03;;;;;;;2.07;1.40;;;;;;;8.16;22.20;100500.41;10434937;28;20274;-85
2022/04/19 23:12:06;;;;;;;3.13;1.50;;;;;;;8.08;22.99;100504.25;10436048;28;20228;-87
2022/04/19 23:17:08;;;;;;;1.40;1.30;;;;;;;7.46;24.17;100514.94;10425036;28;20691;-85
2022/04/19 23:22:11;;;;;;;1.47;1.13;;;;;;;7.97;23.07;100506.78;10418414;28;20255;-85
2022/04/19 23:32:33;;;;;;;2.53;1.50;;;;;;;8.34;22.48;100515.94;10427404;28;20270;-87
2022/04/19 23:37:36;;;;;;;2.03;1.37;;;;;;;7.82;23.06;100515.25;10442223;28;20478;-85
2022/04/19 23:42:38;;;;;;;3.60;1.40;;;;;;;7.63;23.80;100519.50;10432190;28;20248;-85
2022/04/19 23:47:40;;;;;;;2.13;1.50;;;;;;;7.77;23.62;100517.13;10433946;28;20286;-86
2022/04/19 23:52:42;;;;;;;1.73;1.40;;;;;;;7.53;24.24;100514.34;10423532;28;20261;-86
2022/04/19 23:57:45;;;;;;;3.13;1.77;;;;;;;7.73;23.61;100521.84;10433588;28;20662;-84
